Sutter, California
Current Conditions -  °F | °C
As of 4:53 PM on Friday 24 Oct 2014 (Local Time) from KMYV Reporting Station
NA  
Wind Chill: 76°   Ceiling: NA
Heat Index: 76°   Visibility: 10mi
Dew Point: 50°   Wind: 8mph
Humidity: 40%   Direction: 190°S
Pressure: 29.85"   Gusts: NA
Location:  39.16°N, 121.76°W
Report Text: KMYV 242353Z AUTO 19007KT 10SM 24/10 A2985 RMK AO2 SLP112 T02440100 10250 20178 56018 $
Loading
Personal Weather Stations






























Interactive Weather Map
Tropical Storm Tracking
New forecast layout! Learn more

10-Day Weather Forecast

Advertisements
Track Severe Weather on mobile